Time;durP1;ratioP1;P1;durP2;ratioP2;P2;SDS_P1;SDS_P2;PMS_P1;PMS_P2;Temp;Humidity;BMP_temperature;BMP_pressure;BME280_temperature;BME280_humidity;BME280_pressure;Samples;Min_cycle;Max_cycle;Signal;HPM_P1;HPM_P2
2021/03/29 00:00:28;;;;;;;4.33;2.27;;;10.10;93.80;;;;;;5003137;28;20250;-65
2021/03/29 00:02:54;;;;;;;3.80;2.03;;;10.10;93.30;;;;;;5001750;28;20531;-66
2021/03/29 00:05:22;;;;;;;5.33;2.20;;;10.20;94.60;;;;;;5005138;28;20251;-65
2021/03/29 00:07:53;;;;;;;5.97;2.60;;;10.10;93.90;;;;;;4992789;28;20209;-67
2021/03/29 00:10:20;;;;;;;7.93;2.93;;;10.20;93.80;;;;;;5001074;28;20176;-65
2021/03/29 00:12:48;;;;;;;6.37;2.40;;;10.20;94.20;;;;;;5006204;28;20173;-65
2021/03/29 00:15:19;;;;;;;7.53;2.47;;;10.20;94.90;;;;;;5005120;28;20615;-68
2021/03/29 00:17:45;;;;;;;6.27;2.43;;;10.30;94.40;;;;;;5012645;28;20263;-70
2021/03/29 00:20:19;;;;;;;7.23;2.37;;;10.30;94.00;;;;;;5011317;28;20699;-65
2021/03/29 00:22:46;;;;;;;4.50;2.30;;;10.30;92.70;;;;;;5010678;28;20176;-66
2021/03/29 00:25:20;;;;;;;4.67;2.37;;;10.20;93.20;;;;;;4999941;28;20184;-67
2021/03/29 00:27:46;;;;;;;6.43;2.40;;;10.20;93.60;;;;;;5014353;28;20187;-68
2021/03/29 00:30:21;;;;;;;8.33;2.60;;;10.10;93.50;;;;;;5011524;28;20184;-67
2021/03/29 00:32:48;;;;;;;6.67;2.43;;;10.00;93.30;;;;;;5001917;28;20217;-68
2021/03/29 00:35:15;;;;;;;7.77;2.10;;;9.90;93.20;;;;;;5008855;28;20275;-67
2021/03/29 00:37:45;;;;;;;7.30;2.07;;;9.80;93.20;;;;;;5000447;28;20195;-66
2021/03/29 00:40:13;;;;;;;5.00;2.10;;;9.80;93.20;;;;;;4997718;28;20503;-67
2021/03/29 00:42:39;;;;;;;4.70;1.90;;;9.70;93.60;;;;;;5001664;28;20439;-68
2021/03/29 00:45:08;;;;;;;7.00;2.40;;;9.70;94.40;;;;;;5004903;28;20412;-69
2021/03/29 00:47:34;;;;;;;6.13;2.07;;;9.70;94.80;;;;;;5003860;28;20861;-69
2021/03/29 00:50:00;;;;;;;3.80;2.53;;;9.70;95.00;;;;;;5007086;28;20793;-66
2021/03/29 00:52:26;;;;;;;7.33;2.60;;;9.60;95.00;;;;;;5029406;28;20434;-69
2021/03/29 00:54:52;;;;;;;7.73;1.93;;;9.60;94.90;;;;;;5027105;28;20616;-69
2021/03/29 00:57:19;;;;;;;6.30;2.20;;;9.60;95.30;;;;;;5017568;28;20451;-67
2021/03/29 00:59:45;;;;;;;4.40;1.53;;;9.60;95.50;;;;;;5017333;28;20427;-68
2021/03/29 01:02:10;;;;;;;6.80;2.13;;;9.70;95.20;;;;;;5024591;28;20788;-65
2021/03/29 01:04:36;;;;;;;4.13;2.00;;;9.70;95.10;;;;;;5030455;28;20421;-68
2021/03/29 01:07:03;;;;;;;4.50;1.97;;;9.70;95.10;;;;;;5024174;28;20556;-65
2021/03/29 01:09:29;;;;;;;5.53;2.30;;;9.80;96.00;;;;;;5022190;28;20622;-68
2021/03/29 01:12:03;;;;;;;4.70;2.10;;;9.80;95.20;;;;;;5030187;28;21918;-66
2021/03/29 01:14:42;;;;;;;5.37;2.00;;;9.70;94.90;;;;;;5029808;28;20176;-64
2021/03/29 01:17:23;;;;;;;6.87;2.10;;;9.80;95.00;;;;;;5030257;28;20415;-64
2021/03/29 01:20:07;;;;;;;4.87;2.00;;;9.80;95.50;;;;;;5017930;28;20569;-66
2021/03/29 01:22:35;;;;;;;7.10;2.60;;;9.90;96.10;;;;;;5027574;28;20457;-71
2021/03/29 01:25:03;;;;;;;7.90;2.50;;;9.80;96.20;;;;;;5033774;28;20423;-68
2021/03/29 01:27:33;;;;;;;11.67;2.63;;;9.80;96.70;;;;;;5025335;28;20450;-67
2021/03/29 01:29:59;;;;;;;6.03;2.67;;;9.80;97.80;;;;;;5019505;28;20566;-68
2021/03/29 01:32:28;;;;;;;5.27;2.90;;;9.90;97.20;;;;;;5019742;28;20421;-68
2021/03/29 01:34:54;;;;;;;7.27;2.97;;;9.80;97.40;;;;;;5019745;28;20430;-67
2021/03/29 01:37:21;;;;;;;6.13;2.20;;;9.80;97.40;;;;;;5029137;28;20415;-68
2021/03/29 01:39:49;;;;;;;7.87;3.20;;;9.80;97.30;;;;;;5004815;28;20865;-66
2021/03/29 01:42:15;;;;;;;8.50;2.83;;;9.80;97.50;;;;;;5027629;28;20454;-69
2021/03/29 01:44:43;;;;;;;7.40;2.60;;;9.70;98.00;;;;;;5031999;28;20811;-69
2021/03/29 01:47:09;;;;;;;10.40;2.60;;;9.70;97.90;;;;;;5027488;28;20172;-69
2021/03/29 01:49:35;;;;;;;5.83;2.50;;;9.70;97.40;;;;;;5026552;28;20698;-69
2021/03/29 01:52:03;;;;;;;6.13;2.60;;;9.60;97.60;;;;;;5027492;28;20459;-69
2021/03/29 01:54:30;;;;;;;6.83;2.57;;;9.70;97.70;;;;;;5025653;28;20433;-67
2021/03/29 01:56:56;;;;;;;8.63;2.87;;;9.60;97.60;;;;;;5013056;28;20455;-68
2021/03/29 01:59:21;;;;;;;6.23;2.57;;;9.60;97.80;;;;;;5023273;28;20457;-69
2021/03/29 02:01:47;;;;;;;8.47;2.27;;;9.60;98.00;;;;;;5030170;28;20204;-66
2021/03/29 02:04:13;;;;;;;5.30;2.30;;;9.50;97.90;;;;;;5023161;28;20192;-68
2021/03/29 02:06:40;;;;;;;7.10;2.50;;;9.50;97.30;;;;;;5017046;28;20186;-66
2021/03/29 02:09:08;;;;;;;5.17;2.37;;;9.50;97.10;;;;;;5021206;28;20419;-69
2021/03/29 02:11:34;;;;;;;8.50;2.50;;;9.40;97.90;;;;;;5021727;28;20430;-66
2021/03/29 02:14:02;;;;;;;7.57;2.30;;;9.40;98.40;;;;;;5015867;28;20419;-67
2021/03/29 02:16:29;;;;;;;6.07;1.97;;;9.40;98.30;;;;;;5016783;28;20777;-67
2021/03/29 02:18:57;;;;;;;6.87;3.23;;;9.40;98.40;;;;;;5016803;28;20415;-68
2021/03/29 02:21:29;;;;;;;10.53;2.70;;;9.30;98.10;;;;;;5016867;28;20454;-68
2021/03/29 02:23:57;;;;;;;5.60;2.50;;;9.30;98.00;;;;;;5031702;28;20426;-66
2021/03/29 02:26:25;;;;;;;5.70;2.13;;;9.30;98.80;;;;;;5026602;28;20434;-69
2021/03/29 02:28:52;;;;;;;8.40;2.40;;;9.30;99.00;;;;;;5016425;28;20438;-67
2021/03/29 02:31:18;;;;;;;4.40;1.83;;;9.20;98.90;;;;;;5032011;28;20824;-67
2021/03/29 02:33:47;;;;;;;3.60;2.00;;;9.20;98.20;;;;;;5032207;28;20426;-70
2021/03/29 02:36:13;;;;;;;5.37;2.23;;;9.20;99.10;;;;;;5026043;28;20924;-70
2021/03/29 02:38:39;;;;;;;6.17;2.33;;;9.10;98.60;;;;;;5020602;28;20415;-68
2021/03/29 02:41:04;;;;;;;5.80;2.20;;;9.00;99.50;;;;;;5027551;28;20496;-69
2021/03/29 02:43:32;;;;;;;5.73;1.97;;;9.00;99.10;;;;;;5024925;28;20184;-69
2021/03/29 02:46:02;;;;;;;7.33;2.43;;;8.90;98.00;;;;;;5025885;28;20539;-67
2021/03/29 02:48:33;;;;;;;8.33;2.30;;;8.80;99.50;;;;;;5001516;28;20427;-70
2021/03/29 02:51:02;;;;;;;6.33;2.63;;;8.70;99.30;;;;;;5023239;28;20450;-69
2021/03/29 02:53:30;;;;;;;10.37;2.50;;;8.60;99.70;;;;;;5004893;28;20407;-64
2021/03/29 02:56:00;;;;;;;4.87;2.33;;;8.60;99.90;;;;;;4994547;28;20498;-67
2021/03/29 02:58:29;;;;;;;6.73;2.37;;;8.50;99.90;;;;;;5018897;28;20498;-68
2021/03/29 03:00:56;;;;;;;5.67;2.50;;;8.50;99.90;;;;;;5017157;28;20461;-68
2021/03/29 03:03:22;;;;;;;5.73;2.27;;;8.50;99.90;;;;;;5013288;28;20865;-68
2021/03/29 03:05:50;;;;;;;6.07;2.43;;;8.40;99.90;;;;;;5027191;28;20414;-69
2021/03/29 03:08:16;;;;;;;7.90;2.47;;;8.40;99.90;;;;;;5023119;28;20183;-67
2021/03/29 03:10:42;;;;;;;6.00;2.00;;;8.30;99.90;;;;;;5014193;28;20426;-69
2021/03/29 03:13:09;;;;;;;6.90;2.37;;;8.20;99.90;;;;;;5021017;28;21062;-69
2021/03/29 03:15:35;;;;;;;10.00;2.87;;;8.20;99.90;;;;;;5030942;28;20568;-64
2021/03/29 03:18:04;;;;;;;9.10;3.03;;;8.10;99.90;;;;;;5027113;28;20423;-65
2021/03/29 03:20:31;;;;;;;8.73;2.60;;;8.00;99.90;;;;;;5018363;28;20484;-70
2021/03/29 03:23:17;;;;;;;4.83;2.33;;;8.00;99.90;;;;;;5023982;28;20422;-65
2021/03/29 03:25:52;;;;;;;5.97;2.47;;;8.00;99.90;;;;;;5023561;28;20465;-67
2021/03/29 03:28:21;;;;;;;8.17;2.30;;;8.00;99.90;;;;;;5020057;28;20429;-65
2021/03/29 03:30:51;;;;;;;6.77;2.30;;;7.90;99.90;;;;;;5029544;28;20426;-66
2021/03/29 03:33:19;;;;;;;7.53;2.30;;;8.00;99.90;;;;;;5016873;28;20415;-65
2021/03/29 03:35:47;;;;;;;8.23;2.60;;;8.00;99.90;;;;;;5000674;28;20434;-66
2021/03/29 03:38:26;;;;;;;6.20;2.37;;;7.90;99.90;;;;;;5009319;28;20914;-68
2021/03/29 03:41:14;;;;;;;9.93;2.20;;;7.90;99.90;;;;;;5028414;28;20508;-66
2021/03/29 03:43:49;;;;;;;7.43;2.27;;;8.00;99.90;;;;;;5028824;28;20868;-67
2021/03/29 03:46:17;;;;;;;7.57;2.43;;;7.90;99.90;;;;;;5002323;28;20407;-67
2021/03/29 03:48:43;;;;;;;4.63;1.93;;;8.00;99.90;;;;;;5024010;28;20411;-66
2021/03/29 03:51:10;;;;;;;8.30;2.60;;;8.00;99.90;;;;;;5013954;28;20951;-66
2021/03/29 03:53:37;;;;;;;4.83;2.13;;;7.90;99.90;;;;;;5010315;28;20422;-67
2021/03/29 03:56:03;;;;;;;7.73;2.60;;;7.90;99.90;;;;;;5009151;28;20423;-67
2021/03/29 03:58:30;;;;;;;4.77;1.90;;;7.90;99.90;;;;;;5011458;28;20537;-69
2021/03/29 04:00:56;;;;;;;7.93;2.20;;;8.00;99.90;;;;;;5009847;28;20505;-65
2021/03/29 04:03:26;;;;;;;6.33;1.93;;;8.00;99.90;;;;;;5011042;28;20748;-68
2021/03/29 04:05:52;;;;;;;6.83;2.13;;;8.00;99.90;;;;;;5011441;28;20465;-69
2021/03/29 04:08:18;;;;;;;4.13;1.80;;;8.00;99.90;;;;;;5011086;28;20461;-69
2021/03/29 04:13:15;;;;;;;4.33;1.80;;;7.90;99.90;;;;;;5011410;28;20263;-65
2021/03/29 04:15:40;;;;;;;4.20;2.10;;;7.90;99.40;;;;;;4993686;28;20700;-65
2021/03/29 04:18:06;;;;;;;5.10;2.50;;;8.00;99.50;;;;;;5011073;28;20427;-67
2021/03/29 04:20:33;;;;;;;6.83;2.17;;;7.90;99.80;;;;;;4993307;28;20207;-67
2021/03/29 04:22:59;;;;;;;4.00;1.90;;;7.90;99.30;;;;;;5011308;28;20184;-66
2021/03/29 04:25:25;;;;;;;7.43;2.20;;;7.90;99.90;;;;;;5011017;28;20418;-66
2021/03/29 04:27:51;;;;;;;4.00;2.10;;;7.90;99.90;;;;;;5011233;28;20685;-64
2021/03/29 04:30:17;;;;;;;8.27;2.10;;;7.80;99.90;;;;;;5010840;28;20177;-67
2021/03/29 04:32:48;;;;;;;3.17;1.87;;;7.80;99.90;;;;;;5011202;28;20184;-65
2021/03/29 04:35:16;;;;;;;6.87;2.67;;;7.70;99.90;;;;;;5011289;28;20419;-67
2021/03/29 04:37:42;;;;;;;8.23;2.20;;;7.60;99.90;;;;;;5010918;28;20491;-67
2021/03/29 04:40:08;;;;;;;7.17;1.93;;;7.60;99.90;;;;;;5011161;28;20797;-69
2021/03/29 04:42:34;;;;;;;5.40;2.07;;;7.60;99.90;;;;;;5010579;28;20798;-68
2021/03/29 04:45:00;;;;;;;5.93;2.17;;;7.50;99.90;;;;;;5010833;28;20403;-68
2021/03/29 04:47:26;;;;;;;3.57;2.00;;;7.50;99.90;;;;;;5011010;28;20411;-67
2021/03/29 04:49:51;;;;;;;5.20;2.40;;;7.50;99.90;;;;;;5010592;28;20177;-70
2021/03/29 04:52:17;;;;;;;9.10;2.20;;;7.40;99.90;;;;;;5013066;28;20226;-69
2021/03/29 04:54:43;;;;;;;6.13;2.30;;;7.40;99.90;;;;;;5013745;28;20184;-69
2021/03/29 04:57:08;;;;;;;4.67;2.77;;;7.30;99.90;;;;;;5033957;28;21152;-70
2021/03/29 04:59:34;;;;;;;6.47;2.20;;;7.30;99.90;;;;;;5026076;28;20199;-68
2021/03/29 05:01:59;;;;;;;6.23;2.80;;;7.30;99.90;;;;;;5019481;28;20282;-67
2021/03/29 05:04:25;;;;;;;6.67;2.10;;;7.40;99.90;;;;;;5018653;28;20175;-69
2021/03/29 05:06:51;;;;;;;6.37;2.23;;;7.40;99.90;;;;;;5003058;28;20176;-68
2021/03/29 05:09:16;;;;;;;6.57;2.33;;;7.30;99.90;;;;;;5026428;28;20546;-66
2021/03/29 05:11:54;;;;;;;8.37;1.93;;;7.20;99.90;;;;;;5014416;28;20529;-67
2021/03/29 05:14:20;;;;;;;7.07;2.47;;;7.20;99.90;;;;;;5019471;28;20199;-68
2021/03/29 05:16:46;;;;;;;4.47;2.40;;;7.20;99.90;;;;;;5033213;28;20424;-66
2021/03/29 05:19:13;;;;;;;7.37;2.40;;;7.30;99.90;;;;;;5033679;28;20433;-69
2021/03/29 05:21:39;;;;;;;6.03;2.57;;;7.40;99.90;;;;;;5033080;28;20457;-67
2021/03/29 05:24:06;;;;;;;7.83;2.43;;;7.40;99.90;;;;;;5014319;28;20419;-67
2021/03/29 05:26:32;;;;;;;7.93;3.23;;;7.40;99.90;;;;;;5013779;28;20418;-65
2021/03/29 05:28:57;;;;;;;9.37;2.37;;;7.40;99.90;;;;;;5033251;28;20410;-70
2021/03/29 05:31:23;;;;;;;10.63;2.93;;;7.30;99.90;;;;;;5033460;28;20690;-66
2021/03/29 05:33:49;;;;;;;6.80;2.63;;;7.30;99.90;;;;;;5020997;28;20184;-67
2021/03/29 05:36:15;;;;;;;10.67;2.80;;;7.30;99.90;;;;;;5032272;28;20184;-69
2021/03/29 05:38:48;;;;;;;6.83;3.10;;;7.30;99.90;;;;;;5025134;28;20171;-65
2021/03/29 05:41:14;;;;;;;7.53;3.13;;;7.40;99.90;;;;;;5033431;28;20948;-69
2021/03/29 05:43:41;;;;;;;10.17;3.60;;;7.30;99.90;;;;;;5028963;28;20419;-66
2021/03/29 05:46:07;;;;;;;8.47;3.83;;;7.30;99.90;;;;;;5031798;28;20434;-66
2021/03/29 05:48:34;;;;;;;9.23;3.60;;;7.30;99.90;;;;;;5033108;28;20947;-68
2021/03/29 05:51:05;;;;;;;8.30;3.03;;;7.20;99.90;;;;;;5024431;28;20558;-66
2021/03/29 05:53:31;;;;;;;7.20;2.63;;;7.30;99.90;;;;;;5013394;28;20917;-69
2021/03/29 05:55:59;;;;;;;10.90;3.27;;;7.30;99.90;;;;;;5013168;28;20458;-68
2021/03/29 06:00:55;;;;;;;7.10;2.17;;;7.50;99.90;;;;;;5013354;28;20479;-66
2021/03/29 06:03:23;;;;;;;6.80;2.47;;;7.50;99.90;;;;;;5013608;28;20697;-69
2021/03/29 06:05:52;;;;;;;6.60;2.63;;;7.60;99.90;;;;;;5013471;28;20781;-66
2021/03/29 06:08:19;;;;;;;7.77;2.80;;;7.70;99.90;;;;;;5012699;28;20762;-66
2021/03/29 06:10:45;;;;;;;6.53;2.50;;;7.80;99.90;;;;;;5013245;28;20418;-69
2021/03/29 06:13:23;;;;;;;5.87;2.67;;;7.90;99.90;;;;;;5012875;28;20426;-69
2021/03/29 06:16:02;;;;;;;10.93;3.10;;;7.90;99.90;;;;;;5012169;28;20506;-68
2021/03/29 06:18:27;;;;;;;5.60;2.70;;;7.80;99.90;;;;;;5012926;28;20412;-69
2021/03/29 06:21:03;;;;;;;8.70;3.00;;;7.80;99.90;;;;;;5012892;28;20466;-69
2021/03/29 06:23:30;;;;;;;5.40;2.33;;;7.80;99.90;;;;;;5012695;28;20185;-69
2021/03/29 06:26:21;;;;;;;4.67;2.90;;;7.80;99.90;;;;;;5012714;28;20404;-70
2021/03/29 06:28:48;;;;;;;9.97;3.63;;;8.00;99.90;;;;;;5012749;28;20491;-67
2021/03/29 06:31:20;;;;;;;7.10;3.50;;;8.00;99.90;;;;;;5012752;28;20419;-70
2021/03/29 06:33:47;;;;;;;14.43;3.20;;;8.10;99.90;;;;;;5012104;28;20769;-68
2021/03/29 06:36:24;;;;;;;11.10;2.77;;;8.10;99.90;;;;;;5011460;28;20430;-68
2021/03/29 06:38:50;;;;;;;7.57;3.30;;;8.30;99.90;;;;;;5012195;28;20775;-69
2021/03/29 06:41:24;;;;;;;12.80;3.13;;;8.40;99.90;;;;;;5012329;28;20489;-68
2021/03/29 06:43:50;;;;;;;12.23;2.90;;;8.50;99.90;;;;;;5012899;28;20221;-67
2021/03/29 06:46:28;;;;;;;9.40;2.60;;;8.50;99.90;;;;;;5012467;28;20415;-68
2021/03/29 06:48:59;;;;;;;6.30;3.27;;;8.70;99.90;;;;;;5011232;28;20172;-67
2021/03/29 06:51:29;;;;;;;7.93;2.83;;;8.80;99.90;;;;;;5013351;28;20920;-67
2021/03/29 06:53:56;;;;;;;7.97;3.07;;;8.90;99.90;;;;;;5012041;28;20534;-68
2021/03/29 06:56:39;;;;;;;12.50;3.30;;;9.10;99.90;;;;;;5012502;28;20933;-70
2021/03/29 06:59:04;;;;;;;9.97;3.17;;;9.20;99.90;;;;;;5012222;28;20429;-67
2021/03/29 07:01:31;;;;;;;6.60;3.03;;;9.40;99.80;;;;;;5011899;28;20877;-68
2021/03/29 07:03:57;;;;;;;9.73;2.83;;;9.60;99.50;;;;;;5012011;28;20639;-69
2021/03/29 07:06:25;;;;;;;9.90;3.23;;;9.70;98.90;;;;;;5012098;28;20440;-68
2021/03/29 07:08:52;;;;;;;8.33;3.60;;;10.00;97.40;;;;;;5012071;28;20191;-67
2021/03/29 07:11:21;;;;;;;7.47;3.00;;;10.10;96.80;;;;;;5012213;28;20435;-71
2021/03/29 07:13:47;;;;;;;10.23;3.10;;;10.20;96.70;;;;;;5011890;28;20184;-68
2021/03/29 07:16:13;;;;;;;4.87;3.03;;;10.30;97.20;;;;;;5011688;28;20917;-71
2021/03/29 07:18:40;;;;;;;7.57;3.33;;;10.30;97.70;;;;;;5011489;28;20445;-67
2021/03/29 07:21:09;;;;;;;6.50;3.20;;;10.50;96.90;;;;;;5011363;28;20215;-68
2021/03/29 07:23:35;;;;;;;7.27;2.80;;;10.60;96.40;;;;;;5011772;28;20566;-69
2021/03/29 07:26:02;;;;;;;6.67;3.33;;;10.70;95.90;;;;;;5011561;28;20403;-67
2021/03/29 07:28:30;;;;;;;6.30;3.30;;;10.80;96.00;;;;;;5011420;28;20183;-68
2021/03/29 07:31:00;;;;;;;7.07;3.20;;;10.90;96.00;;;;;;5011517;28;20638;-69
2021/03/29 07:33:51;;;;;;;7.60;3.33;;;10.90;95.90;;;;;;5011707;28;20203;-68
2021/03/29 07:36:46;;;;;;;7.40;3.80;;;10.80;95.80;;;;;;5010923;28;21386;-69
2021/03/29 07:39:39;;;;;;;8.03;3.60;;;10.80;96.10;;;;;;5011228;28;20921;-66
2021/03/29 07:42:25;;;;;;;8.13;3.63;;;10.70;96.10;;;;;;5010958;28;20220;-69
2021/03/29 07:44:54;;;;;;;6.70;3.63;;;10.80;96.40;;;;;;4997472;28;20639;-67
2021/03/29 07:47:42;;;;;;;7.87;3.57;;;10.90;96.30;;;;;;5011183;28;20172;-66
2021/03/29 07:50:10;;;;;;;8.37;3.83;;;11.00;96.70;;;;;;5011373;28;20169;-67
2021/03/29 07:52:40;;;;;;;9.07;3.77;;;11.10;96.60;;;;;;5012144;28;20662;-69
2021/03/29 07:55:26;;;;;;;6.50;3.13;;;11.20;96.30;;;;;;5011154;28;20183;-68
2021/03/29 07:57:52;;;;;;;8.10;3.33;;;11.40;95.40;;;;;;5010351;28;20176;-71
2021/03/29 08:00:24;;;;;;;7.97;2.83;;;11.60;93.80;;;;;;5011225;28;20176;-69
2021/03/29 08:02:56;;;;;;;6.40;2.17;;;11.80;92.50;;;;;;5010935;28;20579;-68
2021/03/29 08:05:42;;;;;;;5.90;2.10;;;11.90;92.40;;;;;;5010893;28;20172;-68
2021/03/29 08:08:26;;;;;;;6.27;2.30;;;12.20;90.90;;;;;;5011066;28;20553;-66
2021/03/29 08:11:00;;;;;;;7.80;2.20;;;12.30;86.30;;;;;;5010773;28;20183;-67
2021/03/29 08:13:44;;;;;;;5.87;2.40;;;12.40;82.50;;;;;;5010819;28;20254;-69
2021/03/29 08:16:14;;;;;;;8.77;2.43;;;12.50;82.30;;;;;;5010705;28;20172;-68
2021/03/29 08:19:14;;;;;;;6.23;2.40;;;12.50;81.50;;;;;;5010896;28;20235;-66
2021/03/29 08:21:58;;;;;;;8.93;2.83;;;12.60;81.40;;;;;;5009128;28;20254;-69
2021/03/29 08:24:30;;;;;;;6.00;2.60;;;12.70;79.30;;;;;;4992819;28;20642;-66
2021/03/29 08:27:02;;;;;;;4.33;2.00;;;12.80;79.90;;;;;;5010501;28;20267;-68
2021/03/29 08:29:36;;;;;;;6.80;2.40;;;13.00;79.50;;;;;;5010681;28;20172;-69
2021/03/29 08:32:31;;;;;;;4.63;2.67;;;13.10;76.40;;;;;;5014332;28;20180;-69
2021/03/29 08:35:08;;;;;;;4.97;2.10;;;13.20;75.40;;;;;;5005338;28;20214;-69
2021/03/29 08:37:54;;;;;;;6.60;2.07;;;13.20;73.20;;;;;;5014287;28;20180;-69
2021/03/29 08:40:32;;;;;;;4.57;1.90;;;13.30;74.20;;;;;;5014113;28;20191;-69
2021/03/29 08:43:06;;;;;;;4.57;2.10;;;13.30;72.90;;;;;;5014330;28;20172;-67
2021/03/29 08:45:33;;;;;;;4.20;1.83;;;13.50;73.20;;;;;;5014273;28;20705;-69
2021/03/29 08:48:01;;;;;;;4.37;1.90;;;13.50;71.00;;;;;;5014268;28;20200;-66
2021/03/29 08:50:28;;;;;;;6.40;2.63;;;13.60;71.70;;;;;;5014087;28;20665;-68
2021/03/29 08:52:59;;;;;;;6.33;2.33;;;13.60;70.40;;;;;;5015303;28;20694;-67
2021/03/29 08:55:33;;;;;;;8.27;2.30;;;13.80;71.00;;;;;;5013952;28;20176;-68
2021/03/29 08:57:59;;;;;;;5.47;2.50;;;13.80;68.20;;;;;;5014123;28;20527;-69
2021/03/29 09:00:27;;;;;;;5.47;1.83;;;13.80;69.90;;;;;;5013731;28;20173;-66
2021/03/29 09:02:53;;;;;;;5.47;2.30;;;14.00;68.00;;;;;;5014083;28;20180;-67
2021/03/29 09:05:21;;;;;;;5.77;2.33;;;14.00;68.00;;;;;;5013919;28;20184;-68
2021/03/29 09:07:56;;;;;;;4.97;2.27;;;14.10;69.80;;;;;;5013881;28;20180;-66
2021/03/29 09:10:35;;;;;;;8.37;2.17;;;14.30;68.10;;;;;;5013743;28;20916;-69
2021/03/29 09:13:10;;;;;;;5.20;2.20;;;14.30;68.80;;;;;;5013517;28;20486;-69
2021/03/29 09:15:37;;;;;;;8.27;2.30;;;14.40;69.40;;;;;;5013280;28;20182;-68
2021/03/29 09:18:05;;;;;;;6.13;2.00;;;14.50;65.80;;;;;;4996015;28;20207;-69
2021/03/29 09:20:34;;;;;;;5.93;2.17;;;14.60;65.50;;;;;;5013203;28;20165;-68
2021/03/29 09:23:00;;;;;;;4.77;1.90;;;14.60;65.30;;;;;;5013562;28;20639;-70
2021/03/29 09:25:37;;;;;;;4.80;2.13;;;14.60;63.70;;;;;;5013510;28;20200;-70
2021/03/29 09:31:04;;;;;;;4.60;1.60;;;14.80;64.00;;;;;;5013269;28;20187;-68
2021/03/29 09:33:30;;;;;;;7.10;2.30;;;15.00;63.90;;;;;;5013481;28;20175;-71
2021/03/29 09:35:56;;;;;;;5.70;1.83;;;15.00;64.10;;;;;;5013284;28;20685;-70
2021/03/29 09:38:35;;;;;;;4.57;1.97;;;15.20;63.60;;;;;;4995357;28;20181;-67
2021/03/29 09:41:12;;;;;;;6.37;1.73;;;15.30;62.10;;;;;;5012484;28;20330;-67
2021/03/29 09:43:42;;;;;;;5.43;2.10;;;15.40;62.60;;;;;;5012817;28;20266;-67
2021/03/29 09:46:07;;;;;;;6.60;2.20;;;15.40;61.20;;;;;;5013260;28;20183;-68
2021/03/29 09:48:33;;;;;;;5.27;2.10;;;15.50;60.00;;;;;;5013038;28;20535;-68
2021/03/29 09:50:59;;;;;;;6.37;1.90;;;15.50;59.60;;;;;;5013283;28;20190;-66
2021/03/29 09:53:33;;;;;;;3.77;1.53;;;15.60;60.00;;;;;;5013197;28;20190;-67
2021/03/29 09:56:04;;;;;;;5.90;1.90;;;15.70;58.60;;;;;;5013441;28;20179;-68
2021/03/29 09:58:36;;;;;;;5.13;1.57;;;15.80;58.90;;;;;;5013235;28;20184;-67
2021/03/29 10:01:16;;;;;;;5.80;1.97;;;15.80;57.90;;;;;;5012908;28;20243;-69
2021/03/29 10:03:57;;;;;;;4.47;1.83;;;16.00;56.90;;;;;;5012939;28;20177;-69
2021/03/29 10:06:24;;;;;;;4.43;1.70;;;16.00;58.00;;;;;;5013522;28;20179;-68
2021/03/29 10:09:07;;;;;;;4.20;1.87;;;16.20;57.30;;;;;;5013348;28;20172;-66
2021/03/29 10:11:47;;;;;;;7.70;2.13;;;16.30;57.70;;;;;;4995778;28;20271;-67
2021/03/29 10:14:16;;;;;;;3.40;1.70;;;16.50;57.30;;;;;;5013022;28;20192;-67
2021/03/29 10:16:47;;;;;;;4.10;1.50;;;16.50;56.80;;;;;;5012254;28;20186;-67
2021/03/29 10:19:14;;;;;;;4.30;1.87;;;16.60;56.70;;;;;;5012505;28;20179;-65
2021/03/29 10:22:02;;;;;;;5.60;1.90;;;16.70;55.30;;;;;;5012373;28;20557;-67
2021/03/29 10:24:28;;;;;;;5.17;1.83;;;16.80;55.30;;;;;;5012287;28;20324;-69
2021/03/29 10:26:58;;;;;;;3.13;1.57;;;16.80;54.00;;;;;;5011556;28;20669;-67
2021/03/29 10:29:35;;;;;;;4.00;1.97;;;16.90;55.10;;;;;;5012212;28;20621;-66
2021/03/29 10:32:02;;;;;;;4.33;1.50;;;17.10;54.50;;;;;;5012745;28;20176;-67
2021/03/29 10:34:28;;;;;;;6.80;1.90;;;17.20;54.40;;;;;;5012536;28;20180;-70
2021/03/29 10:36:53;;;;;;;4.00;1.70;;;17.20;53.00;;;;;;5012447;28;20184;-69
2021/03/29 10:39:19;;;;;;;4.80;2.00;;;17.30;52.60;;;;;;5012133;28;20187;-66
2021/03/29 10:41:44;;;;;;;5.47;1.50;;;17.50;52.30;;;;;;5011918;28;20196;-69
2021/03/29 10:44:10;;;;;;;4.50;1.80;;;17.50;51.60;;;;;;5012012;28;20539;-67
2021/03/29 10:46:36;;;;;;;6.40;2.03;;;17.60;52.20;;;;;;5012017;28;20212;-67
2021/03/29 10:49:01;;;;;;;3.27;1.60;;;17.70;51.00;;;;;;5012153;28;20168;-69
2021/03/29 10:51:27;;;;;;;2.97;1.53;;;17.80;50.40;;;;;;5012748;28;20247;-67
2021/03/29 10:53:52;;;;;;;4.00;1.50;;;17.80;48.90;;;;;;4993995;28;20351;-67
2021/03/29 10:56:18;;;;;;;5.53;1.80;;;17.80;49.30;;;;;;5012327;28;20235;-65
2021/03/29 10:58:44;;;;;;;2.73;1.20;;;17.90;49.50;;;;;;5012254;28;20181;-65
2021/03/29 11:01:09;;;;;;;7.07;1.87;;;17.90;49.00;;;;;;5012016;28;20617;-69
2021/03/29 11:03:35;;;;;;;4.30;1.73;;;18.00;49.80;;;;;;5012612;28;20176;-66
2021/03/29 11:06:00;;;;;;;4.73;1.70;;;18.20;50.70;;;;;;5012107;28;20311;-66
2021/03/29 11:08:26;;;;;;;7.23;1.90;;;18.30;49.10;;;;;;5011908;28;20180;-67
2021/03/29 11:10:52;;;;;;;5.47;1.33;;;18.30;48.60;;;;;;5011972;28;20208;-67
2021/03/29 11:13:17;;;;;;;3.90;1.60;;;18.20;48.70;;;;;;5011944;28;20173;-68
2021/03/29 11:15:43;;;;;;;6.80;1.87;;;18.20;49.00;;;;;;5012021;28;20169;-67
2021/03/29 11:18:10;;;;;;;3.90;2.00;;;18.30;48.10;;;;;;5011330;28;20604;-68
2021/03/29 11:20:36;;;;;;;2.33;1.43;;;18.50;47.90;;;;;;5010852;28;20180;-68
2021/03/29 11:23:02;;;;;;;3.70;1.40;;;18.60;47.60;;;;;;5010911;28;20601;-66
2021/03/29 11:25:34;;;;;;;4.73;1.63;;;18.80;46.00;;;;;;5011464;28;20251;-69
2021/03/29 11:27:59;;;;;;;2.83;1.00;;;19.00;46.80;;;;;;5011544;28;20634;-67
2021/03/29 11:30:25;;;;;;;4.40;1.27;;;19.10;46.00;;;;;;5011694;28;20230;-69
2021/03/29 11:32:51;;;;;;;4.20;1.63;;;19.00;45.10;;;;;;5011929;28;20177;-66
2021/03/29 11:35:16;;;;;;;6.50;2.03;;;19.10;45.70;;;;;;5011443;28;20177;-68
2021/03/29 11:37:42;;;;;;;5.20;1.60;;;19.30;45.30;;;;;;5011571;28;20180;-70
2021/03/29 11:40:11;;;;;;;7.83;2.03;;;19.50;55.40;;;;;;5011618;28;20187;-69
2021/03/29 11:42:37;;;;;;;6.73;1.67;;;19.60;58.40;;;;;;5011743;28;20196;-69
2021/03/29 11:45:10;;;;;;;5.43;1.57;;;19.80;50.10;;;;;;5011498;28;20231;-66
2021/03/29 11:47:37;;;;;;;5.53;1.83;;;19.90;49.10;;;;;;5011698;28;20272;-66
2021/03/29 11:50:04;;;;;;;4.23;1.57;;;19.90;47.30;;;;;;5011365;28;20176;-67
2021/03/29 11:52:36;;;;;;;4.77;1.60;;;20.20;49.10;;;;;;5010290;28;20212;-69
2021/03/29 11:55:03;;;;;;;5.57;1.67;;;20.30;47.20;;;;;;5011687;28;20184;-65
2021/03/29 11:57:28;;;;;;;4.50;1.87;;;20.40;45.30;;;;;;5011325;28;20610;-67
2021/03/29 11:59:54;;;;;;;5.27;1.90;;;20.40;41.40;;;;;;5011265;28;20271;-69
2021/03/29 12:02:26;;;;;;;4.30;1.53;;;20.50;41.60;;;;;;5011281;28;20224;-66
2021/03/29 12:05:04;;;;;;;2.67;1.20;;;20.80;40.20;;;;;;5010643;28;20172;-69
2021/03/29 12:07:40;;;;;;;4.90;1.77;;;21.00;40.60;;;;;;5010978;28;20184;-68
2021/03/29 12:12:36;;;;;;;2.73;1.30;;;21.40;39.70;;;;;;5010109;28;20180;-66
2021/03/29 12:15:03;;;;;;;3.40;1.50;;;21.80;49.50;;;;;;5011085;28;20188;-68
2021/03/29 12:17:28;;;;;;;4.73;1.40;;;21.80;48.80;;;;;;5011271;28;20180;-67
2021/03/29 12:19:54;;;;;;;3.07;1.47;;;21.90;47.70;;;;;;5010848;28;20191;-67
2021/03/29 12:22:25;;;;;;;3.03;1.40;;;21.80;47.10;;;;;;5010960;28;20571;-68
2021/03/29 12:24:55;;;;;;;5.03;1.47;;;21.90;47.10;;;;;;5011072;28;20180;-69
2021/03/29 12:27:21;;;;;;;2.27;1.50;;;22.30;50.40;;;;;;4993488;28;20184;-68
2021/03/29 12:29:48;;;;;;;2.77;1.33;;;22.60;52.50;;;;;;5010906;28;20172;-69
2021/03/29 12:32:17;;;;;;;2.73;1.27;;;22.70;49.70;;;;;;5011105;28;20716;-67
2021/03/29 12:34:48;;;;;;;3.10;1.30;;;22.70;49.00;;;;;;5010208;28;20249;-68
2021/03/29 12:37:16;;;;;;;4.60;1.43;;;22.60;48.00;;;;;;5010870;28;20172;-66
2021/03/29 12:39:48;;;;;;;3.93;1.67;;;22.50;49.10;;;;;;5011230;28;20615;-64
2021/03/29 12:42:18;;;;;;;3.30;1.70;;;23.30;74.30;;;;;;5010849;28;20541;-71
2021/03/29 12:44:45;;;;;;;7.40;1.70;;;23.50;71.60;;;;;;5011029;28;20172;-65
2021/03/29 12:47:13;;;;;;;2.60;1.37;;;23.60;69.80;;;;;;5010945;28;20649;-66
2021/03/29 12:49:38;;;;;;;2.30;1.30;;;23.90;70.50;;;;;;5011068;28;20623;-66
2021/03/29 12:52:14;;;;;;;5.10;1.70;;;24.20;69.00;;;;;;5011932;28;20212;-69
2021/03/29 12:54:40;;;;;;;4.67;1.60;;;24.40;37.70;;;;;;5010018;28;20184;-67
2021/03/29 12:57:06;;;;;;;3.43;1.30;;;24.70;36.70;;;;;;5010711;28;20639;-68
2021/03/29 12:59:32;;;;;;;4.67;1.57;;;24.70;35.60;;;;;;5010768;28;20177;-67
2021/03/29 13:01:59;;;;;;;5.40;1.97;;;24.50;29.90;;;;;;5010554;28;20204;-69
2021/03/29 13:04:35;;;;;;;3.10;1.60;;;24.90;30.50;;;;;;5010300;28;20172;-65
2021/03/29 13:12:09;;;;;;;5.00;1.63;;;24.70;30.00;;;;;;5010066;28;20180;-68
2021/03/29 13:14:57;;;;;;;2.83;1.33;;;24.80;30.00;;;;;;5009028;28;20187;-67
2021/03/29 13:17:24;;;;;;;7.97;1.60;;;24.70;30.20;;;;;;5012965;28;20223;-65